Time;durP1;ratioP1;P1;durP2;ratioP2;P2;SDS_P1;SDS_P2;PMS_P1;PMS_P2;Temp;Humidity;BMP_temperature;BMP_pressure;BME280_temperature;BME280_humidity;BME280_pressure;Samples;Min_cycle;Max_cycle;Signal;HPM_P1;HPM_P2
2021/01/26 00:01:18;;;;;;;16.20;10.57;;;1.70;99.90;;;;;;5032574;28;20425;-66
2021/01/26 00:03:44;;;;;;;17.20;10.50;;;1.60;99.90;;;;;;5032417;28;20450;-64
2021/01/26 00:06:10;;;;;;;12.77;8.63;;;1.60;99.90;;;;;;5032659;28;20494;-66
2021/01/26 00:08:35;;;;;;;15.50;11.03;;;1.60;99.90;;;;;;5032175;28;20251;-63
2021/01/26 00:11:03;;;;;;;15.83;9.60;;;1.60;99.90;;;;;;5032628;28;20805;-66
2021/01/26 00:13:29;;;;;;;17.20;10.63;;;1.60;99.90;;;;;;5032197;28;20193;-67
2021/01/26 00:15:55;;;;;;;18.90;10.43;;;1.60;99.90;;;;;;5032572;28;20426;-66
2021/01/26 00:18:21;;;;;;;16.93;11.13;;;1.60;99.90;;;;;;5032127;28;20180;-63
2021/01/26 00:20:47;;;;;;;16.90;12.20;;;1.60;99.90;;;;;;5032078;28;20419;-61
2021/01/26 00:23:13;;;;;;;21.13;12.03;;;1.50;99.90;;;;;;5032145;28;20180;-64
2021/01/26 00:25:40;;;;;;;17.33;10.97;;;1.50;99.90;;;;;;5032767;28;20430;-64
2021/01/26 00:28:08;;;;;;;23.40;12.10;;;1.50;99.90;;;;;;5032177;28;20203;-64
2021/01/26 00:30:36;;;;;;;19.70;13.03;;;1.50;99.90;;;;;;5032312;28;20422;-66
2021/01/26 00:33:07;;;;;;;19.13;12.40;;;1.40;99.90;;;;;;5031838;28;20531;-66
2021/01/26 00:35:33;;;;;;;21.17;12.53;;;1.40;99.90;;;;;;5032197;28;20407;-66
2021/01/26 00:38:00;;;;;;;19.30;12.10;;;1.40;99.90;;;;;;5032203;28;20780;-65
2021/01/26 00:40:27;;;;;;;18.17;12.00;;;1.40;99.90;;;;;;5014289;28;20176;-66
2021/01/26 00:42:53;;;;;;;21.80;12.87;;;1.40;99.90;;;;;;5031984;28;20418;-66
2021/01/26 00:45:20;;;;;;;23.53;10.87;;;1.40;99.90;;;;;;5031848;28;20506;-65
2021/01/26 00:47:46;;;;;;;21.23;12.70;;;1.40;99.90;;;;;;5032090;28;20199;-65
2021/01/26 00:50:13;;;;;;;19.57;12.23;;;1.40;99.90;;;;;;5031643;28;20442;-67
2021/01/26 00:52:39;;;;;;;18.23;10.97;;;1.50;99.90;;;;;;5030407;28;20516;-66
2021/01/26 00:55:06;;;;;;;16.30;10.77;;;1.50;99.90;;;;;;5031840;28;20418;-64
2021/01/26 00:57:32;;;;;;;15.17;9.33;;;1.50;99.90;;;;;;5031522;28;20766;-65
2021/01/26 00:59:57;;;;;;;18.63;12.37;;;1.50;99.90;;;;;;5031563;28;20418;-64
2021/01/26 01:02:23;;;;;;;20.23;12.07;;;1.50;99.90;;;;;;5031380;28;20187;-64
2021/01/26 01:04:49;;;;;;;18.00;11.80;;;1.50;99.90;;;;;;5031515;28;20623;-66
2021/01/26 01:07:16;;;;;;;12.63;8.23;;;1.60;99.90;;;;;;5031631;28;20204;-65
2021/01/26 01:09:43;;;;;;;16.83;12.10;;;1.60;99.90;;;;;;5031733;28;20195;-65
2021/01/26 01:12:09;;;;;;;22.10;12.40;;;1.60;99.90;;;;;;5031356;28;20415;-66
2021/01/26 01:14:37;;;;;;;18.07;11.30;;;1.60;99.90;;;;;;5031484;28;20910;-65
2021/01/26 01:17:03;;;;;;;19.47;12.30;;;1.60;99.90;;;;;;5030534;28;20203;-63
2021/01/26 01:19:28;;;;;;;20.80;12.43;;;1.70;99.90;;;;;;5031274;28;20888;-64
2021/01/26 01:21:54;;;;;;;19.83;12.00;;;1.60;99.90;;;;;;5031340;28;20294;-66
2021/01/26 01:24:20;;;;;;;16.73;11.00;;;1.60;99.90;;;;;;5031164;28;20183;-65
2021/01/26 01:26:45;;;;;;;26.03;13.77;;;1.60;99.90;;;;;;5031204;28;20184;-64
2021/01/26 01:29:13;;;;;;;19.27;11.77;;;1.60;99.90;;;;;;5031141;28;20199;-64
2021/01/26 01:31:38;;;;;;;19.70;11.90;;;1.60;99.90;;;;;;5030974;28;20254;-66
2021/01/26 01:34:06;;;;;;;20.17;12.60;;;1.50;99.90;;;;;;5031072;28;20877;-67
2021/01/26 01:36:36;;;;;;;19.83;13.50;;;1.40;99.90;;;;;;5030935;28;20171;-66
2021/01/26 01:39:04;;;;;;;18.10;12.53;;;1.40;99.90;;;;;;5031121;28;20414;-66
2021/01/26 01:41:31;;;;;;;20.30;13.00;;;1.40;99.90;;;;;;5030948;28;20426;-64
2021/01/26 01:43:57;;;;;;;21.77;13.07;;;1.40;99.90;;;;;;5030773;28;20549;-67
2021/01/26 01:46:24;;;;;;;22.97;14.10;;;1.40;99.90;;;;;;5030833;28;20594;-66
2021/01/26 01:48:53;;;;;;;21.23;13.27;;;1.40;99.90;;;;;;5029279;28;20474;-66
2021/01/26 01:51:22;;;;;;;19.23;11.87;;;1.40;99.90;;;;;;5030837;28;20544;-65
2021/01/26 01:53:59;;;;;;;19.47;10.60;;;1.40;99.90;;;;;;5030590;28;20463;-64
2021/01/26 01:56:32;;;;;;;22.00;12.57;;;1.50;99.90;;;;;;5030918;28;20410;-65
2021/01/26 01:59:02;;;;;;;20.77;12.47;;;1.50;99.90;;;;;;5029638;28;20494;-65
2021/01/26 02:01:29;;;;;;;21.70;12.53;;;1.50;99.90;;;;;;5030745;28;20914;-66
2021/01/26 02:04:05;;;;;;;22.27;13.33;;;1.50;99.90;;;;;;5030354;28;20754;-64
2021/01/26 02:06:35;;;;;;;25.37;13.53;;;1.50;99.90;;;;;;5030823;28;20410;-65
2021/01/26 02:09:15;;;;;;;22.23;12.20;;;1.50;99.90;;;;;;5030149;28;20924;-67
2021/01/26 02:11:41;;;;;;;22.73;12.33;;;1.60;99.90;;;;;;5030586;28;20453;-66
2021/01/26 02:14:07;;;;;;;17.17;11.03;;;1.60;99.90;;;;;;5030514;28;20932;-63
2021/01/26 02:16:54;;;;;;;18.60;11.23;;;1.60;99.90;;;;;;5013169;28;20642;-66
2021/01/26 02:19:44;;;;;;;19.77;12.30;;;1.70;99.90;;;;;;5030385;28;20234;-67
2021/01/26 02:22:54;;;;;;;19.77;12.80;;;1.70;99.90;;;;;;5030371;28;20939;-66
2021/01/26 02:25:41;;;;;;;21.10;12.07;;;1.70;99.90;;;;;;5030298;28;20432;-66
2021/01/26 02:28:34;;;;;;;17.30;10.40;;;1.60;99.90;;;;;;5012564;28;20450;-67
2021/01/26 02:31:38;;;;;;;22.63;11.83;;;1.70;99.90;;;;;;5033975;28;20947;-64
2021/01/26 02:34:39;;;;;;;17.73;10.90;;;1.70;99.90;;;;;;5034234;28;20406;-67
2021/01/26 02:37:13;;;;;;;17.30;10.17;;;1.80;99.90;;;;;;5034478;28;20416;-65
2021/01/26 02:39:59;;;;;;;18.63;11.10;;;1.90;99.90;;;;;;5034230;28;20406;-64
2021/01/26 02:42:48;;;;;;;17.53;11.00;;;1.90;99.90;;;;;;5034062;28;20493;-66
2021/01/26 02:45:32;;;;;;;17.77;9.90;;;1.80;99.90;;;;;;5033913;28;20454;-66
2021/01/26 02:47:58;;;;;;;16.50;10.47;;;1.80;99.90;;;;;;5034351;28;20532;-65
2021/01/26 02:50:48;;;;;;;16.37;9.80;;;1.80;99.90;;;;;;5033691;28;20538;-64
2021/01/26 02:53:35;;;;;;;20.63;11.27;;;1.90;99.90;;;;;;5033933;28;20265;-66
2021/01/26 02:56:10;;;;;;;19.97;10.30;;;1.90;99.90;;;;;;5034013;28;20419;-65
2021/01/26 02:58:56;;;;;;;16.40;8.80;;;1.90;99.90;;;;;;5033963;28;20426;-66
2021/01/26 03:01:24;;;;;;;15.23;9.00;;;1.90;99.90;;;;;;5033777;28;20484;-66
2021/01/26 03:03:51;;;;;;;16.23;9.50;;;1.90;99.90;;;;;;5034086;28;20430;-65
2021/01/26 03:06:31;;;;;;;15.07;8.87;;;2.00;99.90;;;;;;5033616;28;20927;-65
2021/01/26 03:09:40;;;;;;;15.90;9.37;;;2.00;99.90;;;;;;5033677;28;20453;-66
2021/01/26 03:12:12;;;;;;;16.40;9.50;;;2.00;99.90;;;;;;5012262;28;20430;-67
2021/01/26 03:14:59;;;;;;;14.07;9.43;;;2.00;99.90;;;;;;5033560;28;20508;-64
2021/01/26 03:17:35;;;;;;;17.50;9.20;;;2.00;99.90;;;;;;5033528;28;20943;-68
2021/01/26 03:20:23;;;;;;;15.80;8.70;;;2.00;99.90;;;;;;5033690;28;20422;-65
2021/01/26 03:22:52;;;;;;;13.67;8.00;;;2.10;99.90;;;;;;5033599;28;20440;-64
2021/01/26 03:25:20;;;;;;;15.53;8.73;;;2.10;99.90;;;;;;5033435;28;20974;-65
2021/01/26 03:27:48;;;;;;;13.70;7.33;;;2.10;99.90;;;;;;5033312;28;20808;-65
2021/01/26 03:30:21;;;;;;;15.97;9.73;;;2.10;99.90;;;;;;5033159;28;20437;-64
2021/01/26 03:32:54;;;;;;;17.10;8.93;;;2.10;99.90;;;;;;5033118;28;20411;-65
2021/01/26 03:35:20;;;;;;;16.37;8.37;;;2.10;99.90;;;;;;5033296;28;20782;-65
2021/01/26 03:37:52;;;;;;;15.90;8.67;;;2.10;99.90;;;;;;5033109;28;20429;-65
2021/01/26 03:40:19;;;;;;;13.50;8.30;;;2.10;99.90;;;;;;5032940;28;20597;-66
2021/01/26 03:42:45;;;;;;;14.97;7.07;;;2.10;99.90;;;;;;5032672;28;20415;-64
2021/01/26 03:45:11;;;;;;;12.67;7.87;;;2.20;99.90;;;;;;5032958;28;20427;-65
2021/01/26 03:48:11;;;;;;;5.90;4.17;;;2.30;99.90;;;;;;5032726;28;20231;-66
2021/01/26 03:50:51;;;;;;;8.67;4.63;;;2.30;99.90;;;;;;5007546;28;20570;-64
2021/01/26 03:54:05;;;;;;;13.50;7.47;;;2.30;99.90;;;;;;5013229;28;20415;-65
2021/01/26 03:56:44;;;;;;;13.27;7.60;;;2.30;99.90;;;;;;4952432;29;20517;-66
2021/01/26 03:59:37;;;;;;;7.97;4.37;;;2.20;99.90;;;;;;5011078;28;20451;-66
2021/01/26 04:02:08;;;;;;;14.23;7.40;;;2.30;99.90;;;;;;5012877;28;20418;-67
2021/01/26 04:04:55;;;;;;;14.73;7.03;;;2.30;99.90;;;;;;5012929;28;20423;-65
2021/01/26 04:07:32;;;;;;;14.17;6.00;;;2.30;99.90;;;;;;5012779;28;20509;-66
2021/01/26 04:10:06;;;;;;;12.90;7.03;;;2.30;99.90;;;;;;5012664;28;20426;-65
2021/01/26 04:12:35;;;;;;;13.33;7.70;;;2.30;99.90;;;;;;5012119;28;20767;-67
2021/01/26 04:15:09;;;;;;;12.50;6.67;;;2.30;99.90;;;;;;5012572;28;20442;-67
2021/01/26 04:17:40;;;;;;;11.27;7.47;;;2.30;99.90;;;;;;5012794;28;20466;-65
2021/01/26 04:20:33;;;;;;;14.20;6.97;;;2.30;99.90;;;;;;5012669;28;20489;-65
2021/01/26 04:23:00;;;;;;;11.37;6.20;;;2.40;99.90;;;;;;5011873;28;20424;-66
2021/01/26 04:25:40;;;;;;;11.47;6.93;;;2.40;99.90;;;;;;5011318;28;20420;-64
2021/01/26 04:28:13;;;;;;;11.03;5.83;;;2.30;99.90;;;;;;4994381;28;20467;-64
2021/01/26 04:30:40;;;;;;;13.27;6.10;;;2.40;99.90;;;;;;5012349;28;20412;-67
2021/01/26 04:33:12;;;;;;;11.17;5.57;;;2.40;99.90;;;;;;5012134;28;20438;-66
2021/01/26 04:35:37;;;;;;;10.57;5.50;;;2.40;99.90;;;;;;5012148;28;20412;-66
2021/01/26 04:38:04;;;;;;;10.40;6.60;;;2.50;99.90;;;;;;5012093;28;21008;-67
2021/01/26 04:40:31;;;;;;;14.03;6.93;;;2.50;99.90;;;;;;4994623;28;20770;-64
2021/01/26 04:43:08;;;;;;;12.80;6.30;;;2.50;99.90;;;;;;5012206;28;20420;-65
2021/01/26 04:45:33;;;;;;;11.70;5.67;;;2.50;99.90;;;;;;5011937;28;20745;-64
2021/01/26 04:48:11;;;;;;;9.10;4.73;;;2.50;99.90;;;;;;5012194;28;20542;-64
2021/01/26 04:50:53;;;;;;;10.43;5.70;;;2.50;99.90;;;;;;5030968;28;20211;-64
2021/01/26 04:53:36;;;;;;;11.97;6.20;;;2.50;99.90;;;;;;5031248;28;20421;-64
2021/01/26 04:56:30;;;;;;;11.83;5.80;;;2.50;99.90;;;;;;5031559;28;20407;-65
2021/01/26 04:59:23;;;;;;;10.47;5.20;;;2.50;99.90;;;;;;5031607;28;20468;-67
2021/01/26 05:02:10;;;;;;;8.87;4.10;;;2.50;99.90;;;;;;5032208;28;20414;-65
2021/01/26 05:04:43;;;;;;;8.33;5.00;;;2.50;99.90;;;;;;5031479;28;20415;-66
2021/01/26 05:07:15;;;;;;;5.47;3.63;;;2.60;99.90;;;;;;5031560;28;20982;-63
2021/01/26 05:09:56;;;;;;;9.33;5.43;;;2.60;99.90;;;;;;5031288;28;20486;-65
2021/01/26 05:12:23;;;;;;;7.47;4.97;;;2.60;99.90;;;;;;5031457;28;20973;-66
2021/01/26 05:14:55;;;;;;;9.10;5.23;;;2.60;99.90;;;;;;5029716;28;20443;-65
2021/01/26 05:17:48;;;;;;;9.17;5.80;;;2.60;99.90;;;;;;5031427;28;20414;-65
2021/01/26 05:20:19;;;;;;;5.13;3.00;;;2.60;99.90;;;;;;5030758;28;20488;-64
2021/01/26 05:23:07;;;;;;;7.67;2.97;;;2.60;99.90;;;;;;5031153;28;20430;-64
2021/01/26 05:25:33;;;;;;;10.83;5.80;;;2.60;99.90;;;;;;5031267;28;20453;-64
2021/01/26 05:27:59;;;;;;;9.27;5.10;;;2.60;99.90;;;;;;5031041;28;20955;-65
2021/01/26 05:30:32;;;;;;;9.07;5.20;;;2.60;99.90;;;;;;5031416;28;20175;-64
2021/01/26 05:33:01;;;;;;;9.27;4.70;;;2.60;99.90;;;;;;5031459;28;20176;-65
2021/01/26 05:35:27;;;;;;;9.73;5.23;;;2.60;99.90;;;;;;5030323;28;20418;-66
2021/01/26 05:37:54;;;;;;;10.10;5.20;;;2.60;99.90;;;;;;5030935;28;20414;-68
2021/01/26 05:40:30;;;;;;;11.73;6.93;;;2.70;99.90;;;;;;5030496;28;20429;-67
2021/01/26 05:42:59;;;;;;;12.30;4.80;;;2.60;99.90;;;;;;5030856;28;20500;-68
2021/01/26 05:45:31;;;;;;;5.30;3.03;;;2.70;99.90;;;;;;5030911;28;20787;-65
2021/01/26 05:48:07;;;;;;;6.00;3.90;;;2.70;99.90;;;;;;5030969;28;20459;-63
2021/01/26 05:50:36;;;;;;;9.17;5.50;;;2.70;99.90;;;;;;5031000;28;20971;-66
2021/01/26 05:53:13;;;;;;;7.50;4.17;;;2.70;99.90;;;;;;5030741;28;20418;-63
2021/01/26 05:55:39;;;;;;;7.43;4.40;;;2.70;99.90;;;;;;5030946;28;20411;-66
2021/01/26 05:58:10;;;;;;;10.40;5.23;;;2.70;99.90;;;;;;5030852;28;20429;-65
2021/01/26 06:00:36;;;;;;;6.87;3.83;;;2.70;99.90;;;;;;5030403;28;20182;-63
2021/01/26 06:03:17;;;;;;;5.90;3.30;;;2.70;99.90;;;;;;5031212;28;20687;-63
2021/01/26 06:05:57;;;;;;;5.07;3.37;;;2.70;99.90;;;;;;5034596;28;20410;-64
2021/01/26 06:08:23;;;;;;;10.73;5.73;;;2.70;99.90;;;;;;5016689;28;20515;-62
2021/01/26 06:10:48;;;;;;;9.83;5.50;;;2.70;99.90;;;;;;5034739;28;20844;-65
2021/01/26 06:13:27;;;;;;;7.07;3.77;;;2.70;99.90;;;;;;5034824;28;20242;-62
2021/01/26 06:16:14;;;;;;;7.97;4.67;;;2.70;99.90;;;;;;5034913;28;20171;-63
2021/01/26 06:18:55;;;;;;;21.23;5.77;;;2.70;99.90;;;;;;5034322;28;20924;-65
2021/01/26 06:21:20;;;;;;;7.83;4.90;;;2.70;99.90;;;;;;5034631;28;20422;-62
2021/01/26 06:23:46;;;;;;;9.20;5.33;;;2.70;99.90;;;;;;5034714;28;20768;-63
2021/01/26 06:26:14;;;;;;;10.77;4.73;;;2.70;99.90;;;;;;5015889;28;20179;-65
2021/01/26 06:28:39;;;;;;;10.40;5.47;;;2.70;99.90;;;;;;5034628;28;20196;-64
2021/01/26 06:31:25;;;;;;;13.80;5.50;;;2.70;99.90;;;;;;5034518;28;20802;-64
2021/01/26 06:34:11;;;;;;;8.97;4.40;;;2.70;99.90;;;;;;5034244;28;20195;-66
2021/01/26 06:36:59;;;;;;;8.90;5.20;;;2.70;99.90;;;;;;5034282;28;20834;-65
2021/01/26 06:39:42;;;;;;;6.73;3.77;;;2.70;99.90;;;;;;5033964;28;20422;-63
2021/01/26 06:42:08;;;;;;;8.53;5.47;;;2.70;99.90;;;;;;5033831;28;20434;-64
2021/01/26 06:45:02;;;;;;;7.60;4.17;;;2.70;99.90;;;;;;5034285;28;20461;-63
2021/01/26 06:48:05;;;;;;;10.87;4.73;;;2.70;99.90;;;;;;5033931;28;20644;-66
2021/01/26 06:50:49;;;;;;;4.50;2.87;;;2.70;99.90;;;;;;5034315;28;20481;-65
2021/01/26 06:53:29;;;;;;;7.60;4.43;;;2.70;99.90;;;;;;5033928;28;20467;-64
2021/01/26 06:56:22;;;;;;;7.67;4.20;;;2.70;99.90;;;;;;5033556;28;20421;-64
2021/01/26 06:58:56;;;;;;;5.83;3.53;;;2.70;99.90;;;;;;5033690;28;20418;-62
2021/01/26 07:01:49;;;;;;;4.23;2.80;;;2.80;99.90;;;;;;5033909;28;20476;-63
2021/01/26 07:04:35;;;;;;;9.30;4.10;;;2.70;99.90;;;;;;5033870;28;20438;-63
2021/01/26 07:07:25;;;;;;;6.30;3.70;;;2.80;99.90;;;;;;5033875;28;20421;-63
2021/01/26 07:10:09;;;;;;;7.17;3.60;;;2.80;99.90;;;;;;5033944;28;20407;-66
2021/01/26 07:12:51;;;;;;;8.97;3.23;;;2.80;99.90;;;;;;5033795;28;20438;-66
2021/01/26 07:15:24;;;;;;;5.33;3.43;;;2.80;99.90;;;;;;5033381;28;20450;-63
2021/01/26 07:17:58;;;;;;;5.97;3.73;;;2.80;99.90;;;;;;5033425;28;20517;-65
2021/01/26 07:20:46;;;;;;;8.37;4.10;;;2.80;99.90;;;;;;5034022;28;20814;-65
2021/01/26 07:23:37;;;;;;;8.17;4.17;;;2.80;99.90;;;;;;5033662;28;20949;-64
2021/01/26 07:26:35;;;;;;;7.03;4.03;;;2.80;99.90;;;;;;4995879;28;20422;-65
2021/01/26 07:29:28;;;;;;;7.73;3.90;;;2.80;99.90;;;;;;5033681;28;20484;-64
2021/01/26 07:32:15;;;;;;;10.97;4.10;;;2.80;99.90;;;;;;5033509;28;20488;-64
2021/01/26 07:35:25;;;;;;;6.07;3.40;;;2.80;99.90;;;;;;5033417;28;20445;-67
2021/01/26 07:38:06;;;;;;;7.90;3.80;;;2.80;99.90;;;;;;4995730;28;20426;-65
2021/01/26 07:40:50;;;;;;;9.73;3.93;;;2.80;99.90;;;;;;5033264;28;20429;-64
2021/01/26 07:43:25;;;;;;;3.57;2.63;;;2.80;99.90;;;;;;5033241;28;20509;-67
2021/01/26 07:46:04;;;;;;;6.10;3.27;;;4.00;99.90;;;;;;5032861;28;20452;-67
2021/01/26 07:48:46;;;;;;;9.87;2.83;;;2.80;99.90;;;;;;5032797;28;20548;-67
2021/01/26 07:51:21;;;;;;;7.00;3.37;;;2.80;99.90;;;;;;5013067;28;20427;-64
2021/01/26 07:54:08;;;;;;;6.30;3.03;;;2.80;99.90;;;;;;5013218;28;20415;-66
2021/01/26 07:56:37;;;;;;;4.57;3.33;;;2.90;99.90;;;;;;5012785;28;20434;-64
2021/01/26 07:59:09;;;;;;;4.40;2.90;;;2.80;99.90;;;;;;5012629;28;20422;-67
2021/01/26 08:01:42;;;;;;;7.13;3.80;;;2.80;99.90;;;;;;5012886;28;22291;-66
2021/01/26 08:04:08;;;;;;;5.50;2.67;;;2.80;99.90;;;;;;5012676;28;20470;-67
2021/01/26 08:06:38;;;;;;;7.80;2.80;;;2.80;99.90;;;;;;5013079;28;20415;-66
2021/01/26 08:09:10;;;;;;;4.80;2.87;;;2.80;99.90;;;;;;5011396;28;20202;-66
2021/01/26 08:11:48;;;;;;;5.17;3.07;;;2.80;99.90;;;;;;5012775;28;20482;-63
2021/01/26 08:14:14;;;;;;;3.60;2.87;;;2.80;99.90;;;;;;5012667;28;20426;-65
2021/01/26 08:16:56;;;;;;;10.70;4.40;;;2.80;99.90;;;;;;5012089;28;20423;-66
2021/01/26 08:19:33;;;;;;;7.70;3.60;;;2.80;99.90;;;;;;5012650;28;20423;-66
2021/01/26 08:22:12;;;;;;;6.13;2.50;;;2.80;99.90;;;;;;5012435;28;21166;-66
2021/01/26 08:24:39;;;;;;;7.40;2.87;;;2.90;99.90;;;;;;5012574;28;20411;-65
2021/01/26 08:27:33;;;;;;;5.93;3.03;;;2.80;99.90;;;;;;5011443;28;20769;-68
2021/01/26 08:30:32;;;;;;;8.73;3.30;;;2.80;99.90;;;;;;5012232;28;20419;-67
2021/01/26 08:33:13;;;;;;;7.43;3.50;;;2.90;99.90;;;;;;5012223;28;20415;-67
2021/01/26 08:35:47;;;;;;;4.37;2.10;;;2.90;99.90;;;;;;5012349;28;20518;-64
2021/01/26 08:38:49;;;;;;;4.13;2.37;;;2.90;99.90;;;;;;5011943;28;20418;-64
2021/01/26 08:41:55;;;;;;;5.80;3.10;;;2.90;99.90;;;;;;5011931;28;20459;-66
2021/01/26 08:44:20;;;;;;;10.43;2.83;;;2.90;99.90;;;;;;5012094;28;20761;-65
2021/01/26 08:46:52;;;;;;;4.40;2.80;;;2.90;99.90;;;;;;5011611;28;20420;-67
2021/01/26 08:49:27;;;;;;;7.07;2.77;;;2.90;99.90;;;;;;5018463;28;20211;-67
2021/01/26 08:51:54;;;;;;;7.37;3.23;;;3.00;99.90;;;;;;5031473;28;20441;-64
2021/01/26 08:54:41;;;;;;;8.00;3.80;;;3.00;99.90;;;;;;5031536;28;20415;-64
2021/01/26 08:57:21;;;;;;;7.13;2.87;;;3.00;99.90;;;;;;5030113;28;20948;-66
2021/01/26 08:59:46;;;;;;;9.17;2.80;;;3.00;99.90;;;;;;5031540;28;20418;-65
2021/01/26 09:02:29;;;;;;;5.57;2.83;;;3.00;99.90;;;;;;5031789;28;20444;-65
2021/01/26 09:04:55;;;;;;;3.13;2.17;;;3.00;99.90;;;;;;5031514;28;20630;-67
2021/01/26 09:07:50;;;;;;;7.63;3.10;;;3.00;99.90;;;;;;5031382;28;20539;-66
2021/01/26 09:10:30;;;;;;;5.43;3.17;;;3.00;99.90;;;;;;5031300;28;20523;-64
2021/01/26 09:13:23;;;;;;;4.70;2.83;;;3.00;99.90;;;;;;5031344;28;20411;-65
2021/01/26 09:15:52;;;;;;;8.10;2.63;;;3.00;99.90;;;;;;5030774;28;20443;-65
2021/01/26 09:18:21;;;;;;;4.43;2.47;;;3.00;99.90;;;;;;5031205;28;20422;-67
2021/01/26 09:20:52;;;;;;;5.70;2.10;;;3.00;99.90;;;;;;5030283;28;20934;-64
2021/01/26 09:23:22;;;;;;;7.20;2.33;;;3.00;99.90;;;;;;5031131;28;20433;-65
2021/01/26 09:25:47;;;;;;;6.70;2.60;;;3.00;99.90;;;;;;5029502;28;20419;-66
2021/01/26 09:28:19;;;;;;;8.37;3.27;;;3.00;99.90;;;;;;5030113;28;20474;-64
2021/01/26 09:30:47;;;;;;;3.80;2.13;;;3.00;99.90;;;;;;5031344;28;20526;-64
2021/01/26 09:33:12;;;;;;;5.80;3.10;;;3.00;99.90;;;;;;5029700;28;20430;-64
2021/01/26 09:35:47;;;;;;;6.20;2.23;;;3.00;99.90;;;;;;5031590;28;20427;-67
2021/01/26 09:38:43;;;;;;;3.90;2.87;;;3.10;99.90;;;;;;5030531;28;20179;-65
2021/01/26 09:41:30;;;;;;;3.97;1.83;;;3.10;99.90;;;;;;5026557;28;20430;-65
2021/01/26 09:44:19;;;;;;;5.13;2.10;;;2.90;99.90;;;;;;5031435;28;20436;-65
2021/01/26 09:46:59;;;;;;;10.67;3.63;;;3.00;99.90;;;;;;5031649;28;20418;-67
2021/01/26 09:49:37;;;;;;;4.83;2.40;;;3.00;99.90;;;;;;5031739;28;20546;-64
2021/01/26 09:52:11;;;;;;;4.93;2.00;;;3.10;99.90;;;;;;5031193;28;20904;-66
2021/01/26 09:54:42;;;;;;;3.93;2.07;;;3.10;99.90;;;;;;5031556;28;20418;-65
2021/01/26 09:57:18;;;;;;;7.63;3.03;;;3.10;99.90;;;;;;5031183;28;20480;-65
2021/01/26 09:59:44;;;;;;;8.30;2.63;;;3.10;99.90;;;;;;5031855;28;20449;-65
2021/01/26 10:02:16;;;;;;;4.10;1.43;;;3.10;99.90;;;;;;5031431;28;20419;-65
2021/01/26 10:04:48;;;;;;;4.57;2.10;;;3.10;99.90;;;;;;5031557;28;20419;-65
2021/01/26 10:07:17;;;;;;;5.63;2.53;;;3.20;99.90;;;;;;5031360;28;20457;-66
2021/01/26 10:09:43;;;;;;;2.83;1.73;;;3.30;99.90;;;;;;5031564;28;20926;-66
2021/01/26 10:12:17;;;;;;;7.07;2.40;;;3.40;99.90;;;;;;5031323;28;20418;-65
2021/01/26 10:15:22;;;;;;;6.30;2.70;;;3.60;99.90;;;;;;5030834;28;20175;-65
2021/01/26 10:17:59;;;;;;;6.07;2.87;;;3.70;99.90;;;;;;5031290;28;20429;-66
2021/01/26 10:20:36;;;;;;;6.10;2.50;;;3.90;99.90;;;;;;5031184;28;20414;-65
2021/01/26 10:23:09;;;;;;;5.83;2.93;;;4.10;99.90;;;;;;5031289;28;20812;-65
2021/01/26 10:25:36;;;;;;;9.13;2.10;;;4.30;99.90;;;;;;5031198;28;20727;-67
2021/01/26 10:28:11;;;;;;;6.60;1.60;;;4.40;99.90;;;;;;5031171;28;20477;-65
2021/01/26 10:30:44;;;;;;;8.70;2.00;;;4.30;99.90;;;;;;5030837;28;20445;-65
2021/01/26 10:33:27;;;;;;;3.83;2.20;;;4.20;99.90;;;;;;5029958;28;20834;-64
2021/01/26 10:35:53;;;;;;;6.00;3.00;;;4.00;99.90;;;;;;5031293;28;20423;-64
2021/01/26 10:38:29;;;;;;;5.47;2.20;;;3.80;99.90;;;;;;5031201;28;20446;-66
2021/01/26 10:41:10;;;;;;;3.77;2.00;;;3.80;99.90;;;;;;5031086;28;20263;-64
2021/01/26 10:43:36;;;;;;;4.73;1.63;;;3.90;99.90;;;;;;5030511;28;20469;-65
2021/01/26 10:46:02;;;;;;;10.40;3.40;;;3.80;99.90;;;;;;5030784;28;20427;-66
2021/01/26 10:48:30;;;;;;;6.90;2.23;;;3.90;99.90;;;;;;5030435;28;20215;-65
2021/01/26 10:51:15;;;;;;;4.47;2.80;;;3.90;99.90;;;;;;5032044;28;20462;-66
2021/01/26 10:53:44;;;;;;;6.37;3.03;;;4.00;99.90;;;;;;5034063;28;20514;-68
2021/01/26 10:56:10;;;;;;;11.27;2.53;;;3.90;99.90;;;;;;5034268;28;20498;-67
2021/01/26 10:58:36;;;;;;;8.23;2.83;;;4.00;99.90;;;;;;5033983;28;20410;-63
2021/01/26 11:01:03;;;;;;;10.03;3.53;;;3.90;99.90;;;;;;5033834;28;20449;-65
2021/01/26 11:03:29;;;;;;;8.13;3.20;;;3.80;99.90;;;;;;5033985;28;20238;-67
2021/01/26 11:05:54;;;;;;;4.40;2.03;;;3.80;99.90;;;;;;5033929;28;20423;-65
2021/01/26 11:08:20;;;;;;;6.63;3.07;;;3.70;99.90;;;;;;5033900;28;20330;-67
2021/01/26 11:10:46;;;;;;;6.37;3.33;;;3.60;99.90;;;;;;5034170;28;20195;-64
2021/01/26 11:13:11;;;;;;;6.67;2.70;;;3.60;99.90;;;;;;5033961;28;20180;-65
2021/01/26 11:15:37;;;;;;;7.90;3.60;;;3.60;99.90;;;;;;5033732;28;20646;-66
2021/01/26 11:18:05;;;;;;;9.13;2.97;;;3.70;99.90;;;;;;5033444;28;20179;-67
2021/01/26 11:20:31;;;;;;;4.93;2.53;;;3.60;99.90;;;;;;5033733;28;20254;-67
2021/01/26 11:22:56;;;;;;;6.37;3.13;;;3.60;99.90;;;;;;5033276;28;20514;-66
2021/01/26 11:25:24;;;;;;;9.47;3.67;;;3.60;99.90;;;;;;5033367;28;20172;-64
2021/01/26 11:27:51;;;;;;;13.13;4.63;;;3.60;99.90;;;;;;5033194;28;20195;-63
2021/01/26 11:30:17;;;;;;;10.03;3.73;;;3.70;99.90;;;;;;5033459;28;20414;-65
2021/01/26 11:32:43;;;;;;;12.17;4.00;;;3.70;99.90;;;;;;5033478;28;20927;-66
2021/01/26 11:35:14;;;;;;;6.50;2.60;;;3.80;99.90;;;;;;5033291;28;20199;-66
2021/01/26 11:37:40;;;;;;;6.47;4.47;;;3.80;99.90;;;;;;5033136;28;20182;-65
2021/01/26 11:40:07;;;;;;;2.83;2.53;;;3.90;99.90;;;;;;5032987;28;20406;-64
2021/01/26 11:42:34;;;;;;;5.83;2.40;;;3.80;99.90;;;;;;5033319;28;20180;-66
2021/01/26 11:44:59;;;;;;;5.23;2.80;;;3.90;99.90;;;;;;5033152;28;20438;-64
2021/01/26 11:47:34;;;;;;;6.43;3.00;;;4.00;99.90;;;;;;5033255;28;20527;-66
2021/01/26 11:50:01;;;;;;;7.53;3.90;;;4.10;99.90;;;;;;5033305;28;20222;-64
2021/01/26 11:52:27;;;;;;;6.37;3.43;;;4.10;99.90;;;;;;5033024;28;20407;-65
2021/01/26 11:54:53;;;;;;;4.47;3.90;;;4.20;99.90;;;;;;5015078;28;20461;-64
2021/01/26 11:57:19;;;;;;;5.23;3.33;;;4.30;99.90;;;;;;5033171;28;20179;-65
2021/01/26 11:59:44;;;;;;;6.90;3.07;;;4.40;99.90;;;;;;5033273;28;20211;-69
2021/01/26 12:02:10;;;;;;;9.23;3.13;;;4.50;99.90;;;;;;5032835;28;20207;-66
2021/01/26 12:04:35;;;;;;;5.73;3.20;;;4.60;99.90;;;;;;5032927;28;20202;-67
2021/01/26 12:07:01;;;;;;;5.40;2.47;;;4.70;99.90;;;;;;5032688;28;20214;-63
2021/01/26 12:09:27;;;;;;;7.13;3.63;;;4.90;99.90;;;;;;5032656;28;20626;-64
2021/01/26 12:11:52;;;;;;;4.57;3.03;;;4.90;99.90;;;;;;5015058;28;20634;-64
2021/01/26 12:14:18;;;;;;;5.80;2.70;;;5.00;99.90;;;;;;5032910;28;20226;-66
2021/01/26 12:16:43;;;;;;;8.63;4.37;;;5.20;99.90;;;;;;5032596;28;20176;-68
2021/01/26 12:19:09;;;;;;;6.47;3.23;;;5.10;99.90;;;;;;5032507;28;20630;-65
2021/01/26 12:21:35;;;;;;;8.20;3.23;;;5.10;99.90;;;;;;5032378;28;20172;-64
2021/01/26 12:24:00;;;;;;;11.13;3.77;;;5.00;99.90;;;;;;5032350;28;20175;-67
2021/01/26 12:26:26;;;;;;;12.43;3.47;;;5.10;99.90;;;;;;5032397;28;20222;-64
2021/01/26 12:28:51;;;;;;;10.97;3.77;;;5.30;99.90;;;;;;5032369;28;20203;-66
2021/01/26 12:31:17;;;;;;;5.87;3.20;;;5.50;99.90;;;;;;5032487;28;20188;-68
2021/01/26 12:33:43;;;;;;;5.57;2.53;;;5.60;99.90;;;;;;5032278;28;20180;-67
2021/01/26 12:36:09;;;;;;;5.50;2.43;;;5.40;99.90;;;;;;5032257;28;20204;-68
2021/01/26 12:38:34;;;;;;;4.97;3.47;;;5.30;99.90;;;;;;5032125;28;20333;-66
2021/01/26 12:41:00;;;;;;;7.93;3.53;;;5.30;99.90;;;;;;5031822;28;20183;-68
2021/01/26 12:43:25;;;;;;;2.67;2.10;;;5.10;99.90;;;;;;5032074;28;20178;-67
2021/01/26 12:45:51;;;;;;;6.03;3.30;;;5.10;99.90;;;;;;5031918;28;20182;-64
2021/01/26 12:48:17;;;;;;;6.20;3.23;;;5.10;99.90;;;;;;5031917;28;20289;-67
2021/01/26 12:50:46;;;;;;;6.83;3.60;;;5.30;99.90;;;;;;5032282;28;20311;-66
2021/01/26 12:53:12;;;;;;;5.50;3.40;;;5.30;99.90;;;;;;5031824;28;20168;-65
2021/01/26 12:55:44;;;;;;;5.60;3.30;;;5.40;99.90;;;;;;5031683;28;20410;-68
2021/01/26 12:58:10;;;;;;;6.77;3.60;;;5.40;99.90;;;;;;5031802;28;22085;-66
2021/01/26 13:00:36;;;;;;;7.60;3.90;;;5.70;99.90;;;;;;5030558;28;20430;-65
2021/01/26 13:03:01;;;;;;;7.40;3.70;;;5.50;99.90;;;;;;5031492;28;20584;-66
2021/01/26 13:05:34;;;;;;;13.37;4.13;;;5.60;99.90;;;;;;5031491;28;20184;-65
2021/01/26 13:08:00;;;;;;;5.63;3.30;;;5.70;99.90;;;;;;5031262;28;20207;-65
2021/01/26 13:10:26;;;;;;;8.33;3.43;;;5.80;99.90;;;;;;5031785;28;20419;-65
2021/01/26 13:12:52;;;;;;;7.73;2.80;;;5.70;99.90;;;;;;5031143;28;20780;-65
2021/01/26 13:15:19;;;;;;;7.57;3.13;;;5.60;99.90;;;;;;5031251;28;20697;-67
2021/01/26 13:17:45;;;;;;;12.30;2.50;;;5.40;99.90;;;;;;5031319;28;20660;-66
2021/01/26 13:20:15;;;;;;;7.63;3.37;;;5.20;99.90;;;;;;5031327;28;20410;-66
2021/01/26 13:22:42;;;;;;;4.80;3.27;;;5.10;99.90;;;;;;5031131;28;20625;-67
2021/01/26 13:25:09;;;;;;;6.80;3.70;;;5.00;99.90;;;;;;5031223;28;20513;-65